sensor_id;sensor_type;location;lat;lon;timestamp;pressure;altitude;pressure_sealevel;temperature;humidity
83625;BME280;73589;41.158;-73.238;2023-11-19T00:01:46;100879.07;;;25.22;41.49
83625;BME280;73589;41.158;-73.238;2023-11-19T00:04:18;100890.71;;;25.26;41.40
83625;BME280;73589;41.158;-73.238;2023-11-19T00:06:48;100900.58;;;25.25;41.52
83625;BME280;73589;41.158;-73.238;2023-11-19T00:09:18;100912.59;;;25.21;41.61
83625;BME280;73589;41.158;-73.238;2023-11-19T00:11:49;100917.34;;;24.29;43.89
83625;BME280;73589;41.158;-73.238;2023-11-19T00:14:19;100926.46;;;25.00;42.00
83625;BME280;73589;41.158;-73.238;2023-11-19T00:16:50;100929.50;;;25.19;41.01
83625;BME280;73589;41.158;-73.238;2023-11-19T00:19:20;100937.25;;;25.20;40.93
83625;BME280;73589;41.158;-73.238;2023-11-19T00:21:51;100936.39;;;25.22;41.00
83625;BME280;73589;41.158;-73.238;2023-11-19T00:24:21;100934.68;;;25.27;41.08
83625;BME280;73589;41.158;-73.238;2023-11-19T00:26:52;100933.71;;;25.13;41.35
83625;BME280;73589;41.158;-73.238;2023-11-19T00:29:23;100932.02;;;25.15;41.52
83625;BME280;73589;41.158;-73.238;2023-11-19T00:31:53;100933.90;;;25.28;41.36
83625;BME280;73589;41.158;-73.238;2023-11-19T00:34:23;100930.99;;;25.33;41.35
83625;BME280;73589;41.158;-73.238;2023-11-19T00:36:53;100928.90;;;25.34;41.30
83625;BME280;73589;41.158;-73.238;2023-11-19T00:39:25;100925.81;;;25.34;41.39
83625;BME280;73589;41.158;-73.238;2023-11-19T00:41:54;100926.55;;;25.31;41.35
83625;BME280;73589;41.158;-73.238;2023-11-19T00:44:25;100928.90;;;25.32;41.27
83625;BME280;73589;41.158;-73.238;2023-11-19T00:46:55;100923.96;;;25.28;41.19
83625;BME280;73589;41.158;-73.238;2023-11-19T00:49:25;100930.33;;;25.26;41.13
83625;BME280;73589;41.158;-73.238;2023-11-19T00:51:56;100935.54;;;24.06;44.15
83625;BME280;73589;41.158;-73.238;2023-11-19T00:54:26;100941.97;;;25.01;41.51
83625;BME280;73589;41.158;-73.238;2023-11-19T00:56:59;100939.83;;;25.21;40.68
83625;BME280;73589;41.158;-73.238;2023-11-19T00:59:29;100934.51;;;25.31;40.19
83625;BME280;73589;41.158;-73.238;2023-11-19T01:01:58;100942.98;;;25.28;40.32
83625;BME280;73589;41.158;-73.238;2023-11-19T01:04:29;100945.10;;;25.39;40.19
83625;BME280;73589;41.158;-73.238;2023-11-19T01:06:59;100950.58;;;25.27;40.40
83625;BME280;73589;41.158;-73.238;2023-11-19T01:09:31;100958.41;;;25.20;40.46
83625;BME280;73589;41.158;-73.238;2023-11-19T01:12:00;100960.37;;;25.14;40.42
83625;BME280;73589;41.158;-73.238;2023-11-19T01:14:30;100957.51;;;25.04;40.55
83625;BME280;73589;41.158;-73.238;2023-11-19T01:17:01;100960.14;;;24.92;40.71
83625;BME280;73589;41.158;-73.238;2023-11-19T01:19:31;100966.55;;;24.90;40.50
83625;BME280;73589;41.158;-73.238;2023-11-19T01:22:00;100967.33;;;24.82;40.68
83625;BME280;73589;41.158;-73.238;2023-11-19T01:24:31;100965.02;;;24.89;40.53
83625;BME280;73589;41.158;-73.238;2023-11-19T01:27:09;100965.06;;;24.87;40.96
83625;BME280;73589;41.158;-73.238;2023-11-19T01:29:33;100964.83;;;24.91;40.63
83625;BME280;73589;41.158;-73.238;2023-11-19T01:32:03;100959.58;;;24.87;40.77
83625;BME280;73589;41.158;-73.238;2023-11-19T01:34:49;100969.97;;;22.36;46.68
83625;BME280;73589;41.158;-73.238;2023-11-19T01:37:09;100966.89;;;23.70;43.96
83625;BME280;73589;41.158;-73.238;2023-11-19T01:39:35;100965.41;;;24.69;41.09
83625;BME280;73589;41.158;-73.238;2023-11-19T01:42:06;100967.46;;;24.78;40.59
83625;BME280;73589;41.158;-73.238;2023-11-19T01:44:36;100970.62;;;24.78;40.47
83625;BME280;73589;41.158;-73.238;2023-11-19T01:47:07;100980.96;;;24.74;40.56
83625;BME280;73589;41.158;-73.238;2023-11-19T01:49:37;100989.44;;;24.73;40.61
83625;BME280;73589;41.158;-73.238;2023-11-19T01:52:13;100989.31;;;24.68;41.00
83625;BME280;73589;41.158;-73.238;2023-11-19T01:54:38;100985.67;;;24.75;40.90
83625;BME280;73589;41.158;-73.238;2023-11-19T01:57:09;100981.37;;;24.90;40.75
83625;BME280;73589;41.158;-73.238;2023-11-19T01:59:40;100979.87;;;24.70;41.22
83625;BME280;73589;41.158;-73.238;2023-11-19T02:02:10;100980.09;;;24.98;40.80
83625;BME280;73589;41.158;-73.238;2023-11-19T02:04:42;100982.35;;;24.94;40.90
83625;BME280;73589;41.158;-73.238;2023-11-19T02:07:11;100983.44;;;24.87;41.01
83625;BME280;73589;41.158;-73.238;2023-11-19T02:09:43;100981.54;;;24.81;41.17
83625;BME280;73589;41.158;-73.238;2023-11-19T02:12:12;100979.16;;;24.78;41.21
83625;BME280;73589;41.158;-73.238;2023-11-19T02:14:44;100984.05;;;24.71;41.39
83625;BME280;73589;41.158;-73.238;2023-11-19T02:19:44;100996.07;;;24.69;41.47
83625;BME280;73589;41.158;-73.238;2023-11-19T02:22:15;100993.86;;;24.59;41.65
83625;BME280;73589;41.158;-73.238;2023-11-19T02:24:48;100981.00;;;24.61;41.66
83625;BME280;73589;41.158;-73.238;2023-11-19T02:27:23;100972.43;;;24.58;43.51
83625;BME280;73589;41.158;-73.238;2023-11-19T02:29:47;100971.14;;;24.64;43.21
83625;BME280;73589;41.158;-73.238;2023-11-19T02:32:17;100976.90;;;24.66;43.61
83625;BME280;73589;41.158;-73.238;2023-11-19T02:34:47;100978.78;;;24.65;43.96
83625;BME280;73589;41.158;-73.238;2023-11-19T02:37:24;100980.91;;;24.69;44.04
83625;BME280;73589;41.158;-73.238;2023-11-19T02:39:49;100977.71;;;24.66;44.28
83625;BME280;73589;41.158;-73.238;2023-11-19T02:42:19;100974.35;;;24.71;44.20
83625;BME280;73589;41.158;-73.238;2023-11-19T02:44:50;100982.54;;;24.77;44.11
83625;BME280;73589;41.158;-73.238;2023-11-19T02:47:20;100994.24;;;24.77;44.15
83625;BME280;73589;41.158;-73.238;2023-11-19T02:49:51;101006.61;;;24.75;44.32
83625;BME280;73589;41.158;-73.238;2023-11-19T02:52:21;101008.36;;;24.77;44.29
83625;BME280;73589;41.158;-73.238;2023-11-19T02:54:52;101013.69;;;24.68;44.51
83625;BME280;73589;41.158;-73.238;2023-11-19T02:57:22;101016.82;;;24.67;44.62
83625;BME280;73589;41.158;-73.238;2023-11-19T02:59:53;101016.68;;;24.69;44.55
83625;BME280;73589;41.158;-73.238;2023-11-19T03:02:23;101023.68;;;24.74;44.43
83625;BME280;73589;41.158;-73.238;2023-11-19T03:04:52;101021.94;;;24.70;44.51
83625;BME280;73589;41.158;-73.238;2023-11-19T03:07:22;101023.78;;;24.74;44.52
83625;BME280;73589;41.158;-73.238;2023-11-19T03:09:53;101024.56;;;24.72;44.70
83625;BME280;73589;41.158;-73.238;2023-11-19T03:12:24;101023.62;;;24.84;44.37
83625;BME280;73589;41.158;-73.238;2023-11-19T03:14:55;101022.36;;;24.82;44.47
83625;BME280;73589;41.158;-73.238;2023-11-19T03:17:25;101026.43;;;24.78;44.62
83625;BME280;73589;41.158;-73.238;2023-11-19T03:19:55;101030.30;;;24.81;44.59
83625;BME280;73589;41.158;-73.238;2023-11-19T03:22:26;101027.71;;;24.88;44.53
83625;BME280;73589;41.158;-73.238;2023-11-19T03:24:56;101028.21;;;24.84;44.75
83625;BME280;73589;41.158;-73.238;2023-11-19T03:27:26;101028.10;;;25.00;44.43
83625;BME280;73589;41.158;-73.238;2023-11-19T03:29:56;101028.74;;;24.93;44.50
83625;BME280;73589;41.158;-73.238;2023-11-19T03:32:28;101033.58;;;24.82;44.64
83625;BME280;73589;41.158;-73.238;2023-11-19T03:34:57;101028.66;;;24.78;44.67
83625;BME280;73589;41.158;-73.238;2023-11-19T03:37:28;101029.53;;;24.77;44.68
83625;BME280;73589;41.158;-73.238;2023-11-19T03:40:04;101029.46;;;24.70;44.76
83625;BME280;73589;41.158;-73.238;2023-11-19T03:42:29;101028.89;;;24.66;44.85
83625;BME280;73589;41.158;-73.238;2023-11-19T03:45:00;101025.54;;;24.69;44.77
83625;BME280;73589;41.158;-73.238;2023-11-19T03:47:31;101024.17;;;24.61;44.95
83625;BME280;73589;41.158;-73.238;2023-11-19T03:50:00;101015.15;;;24.49;45.43
83625;BME280;73589;41.158;-73.238;2023-11-19T03:52:30;101009.28;;;24.64;45.30
83625;BME280;73589;41.158;-73.238;2023-11-19T03:55:01;101009.87;;;24.64;45.16
83625;BME280;73589;41.158;-73.238;2023-11-19T03:57:31;101017.47;;;24.61;45.14
83625;BME280;73589;41.158;-73.238;2023-11-19T04:00:02;101013.06;;;24.61;45.15
83625;BME280;73589;41.158;-73.238;2023-11-19T04:02:33;101015.26;;;24.66;44.97
83625;BME280;73589;41.158;-73.238;2023-11-19T04:05:03;101020.47;;;24.62;45.00
83625;BME280;73589;41.158;-73.238;2023-11-19T04:07:34;101024.89;;;24.60;45.02
83625;BME280;73589;41.158;-73.238;2023-11-19T04:10:03;101022.96;;;24.60;45.10
83625;BME280;73589;41.158;-73.238;2023-11-19T04:12:34;101022.62;;;24.49;45.17
83625;BME280;73589;41.158;-73.238;2023-11-19T04:15:04;101036.86;;;21.60;51.71
83625;BME280;73589;41.158;-73.238;2023-11-19T04:17:34;101042.00;;;23.40;47.61
83625;BME280;73589;41.158;-73.238;2023-11-19T04:20:14;101048.42;;;22.56;49.30
83625;BME280;73589;41.158;-73.238;2023-11-19T04:22:35;101038.58;;;23.85;46.56
83625;BME280;73589;41.158;-73.238;2023-11-19T04:25:05;101037.93;;;24.36;45.62
83625;BME280;73589;41.158;-73.238;2023-11-19T04:27:35;101045.09;;;24.49;45.10
83625;BME280;73589;41.158;-73.238;2023-11-19T04:30:06;101046.21;;;24.53;44.74
83625;BME280;73589;41.158;-73.238;2023-11-19T04:32:35;101043.33;;;24.56;44.61
83625;BME280;73589;41.158;-73.238;2023-11-19T04:35:06;101043.35;;;24.53;44.53
83625;BME280;73589;41.158;-73.238;2023-11-19T04:37:35;101043.51;;;24.60;44.34
83625;BME280;73589;41.158;-73.238;2023-11-19T04:40:11;101044.03;;;24.64;44.19
83625;BME280;73589;41.158;-73.238;2023-11-19T04:42:37;101043.51;;;24.57;44.27
83625;BME280;73589;41.158;-73.238;2023-11-19T04:45:09;101040.89;;;22.96;47.51
83625;BME280;73589;41.158;-73.238;2023-11-19T04:47:37;101050.66;;;22.61;48.34
83625;BME280;73589;41.158;-73.238;2023-11-19T04:50:09;101049.32;;;24.03;45.27
83625;BME280;73589;41.158;-73.238;2023-11-19T04:52:38;101051.04;;;24.28;44.60
83625;BME280;73589;41.158;-73.238;2023-11-19T04:55:09;101044.52;;;24.30;44.48
83625;BME280;73589;41.158;-73.238;2023-11-19T04:57:44;101039.26;;;24.33;44.38
83625;BME280;73589;41.158;-73.238;2023-11-19T05:00:10;101041.15;;;24.36;44.34
83625;BME280;73589;41.158;-73.238;2023-11-19T05:02:39;101038.67;;;24.48;44.11
83625;BME280;73589;41.158;-73.238;2023-11-19T05:05:10;101035.94;;;24.43;44.05
83625;BME280;73589;41.158;-73.238;2023-11-19T05:07:41;101035.66;;;24.36;44.22
83625;BME280;73589;41.158;-73.238;2023-11-19T05:10:11;101028.81;;;24.35;44.23
83625;BME280;73589;41.158;-73.238;2023-11-19T05:12:42;101036.95;;;22.66;47.75
83625;BME280;73589;41.158;-73.238;2023-11-19T05:15:12;101037.14;;;22.36;48.52
83625;BME280;73589;41.158;-73.238;2023-11-19T05:17:44;101035.55;;;23.82;45.34
83625;BME280;73589;41.158;-73.238;2023-11-19T05:20:14;101028.87;;;24.09;44.65
83625;BME280;73589;41.158;-73.238;2023-11-19T05:22:44;101032.34;;;24.13;44.54
83625;BME280;73589;41.158;-73.238;2023-11-19T05:25:15;101037.57;;;24.18;44.43
83625;BME280;73589;41.158;-73.238;2023-11-19T05:27:45;101038.09;;;24.20;44.47
83625;BME280;73589;41.158;-73.238;2023-11-19T05:30:16;101039.88;;;24.25;44.28
83625;BME280;73589;41.158;-73.238;2023-11-19T05:32:46;101037.09;;;24.25;44.41
83625;BME280;73589;41.158;-73.238;2023-11-19T05:35:17;101034.49;;;24.26;44.46
83625;BME280;73589;41.158;-73.238;2023-11-19T05:37:47;101035.50;;;23.08;47.20
83625;BME280;73589;41.158;-73.238;2023-11-19T05:40:17;101030.31;;;23.71;45.76
83625;BME280;73589;41.158;-73.238;2023-11-19T05:42:49;101024.31;;;24.23;45.26
83625;BME280;73589;41.158;-73.238;2023-11-19T05:45:19;101019.90;;;24.29;44.90
83625;BME280;73589;41.158;-73.238;2023-11-19T05:47:50;101018.69;;;24.28;44.63
83625;BME280;73589;41.158;-73.238;2023-11-19T05:50:21;101015.62;;;24.35;44.50
83625;BME280;73589;41.158;-73.238;2023-11-19T05:52:50;101016.74;;;23.71;45.64
83625;BME280;73589;41.158;-73.238;2023-11-19T05:55:21;101014.14;;;23.38;46.31
83625;BME280;73589;41.158;-73.238;2023-11-19T05:57:52;101004.91;;;24.09;45.11
83625;BME280;73589;41.158;-73.238;2023-11-19T06:00:22;101006.89;;;24.20;44.94
83625;BME280;73589;41.158;-73.238;2023-11-19T06:02:54;101011.31;;;24.29;44.50
83625;BME280;73589;41.158;-73.238;2023-11-19T06:05:23;101011.46;;;24.22;44.70
83625;BME280;73589;41.158;-73.238;2023-11-19T06:07:53;101014.46;;;24.22;44.72
83625;BME280;73589;41.158;-73.238;2023-11-19T06:10:25;101018.30;;;24.34;44.55
83625;BME280;73589;41.158;-73.238;2023-11-19T06:12:54;101021.27;;;23.29;46.31
83625;BME280;73589;41.158;-73.238;2023-11-19T06:15:25;101014.88;;;23.52;45.48
83625;BME280;73589;41.158;-73.238;2023-11-19T06:17:56;101016.37;;;23.66;45.37
83625;BME280;73589;41.158;-73.238;2023-11-19T06:20:26;101016.37;;;24.06;44.56
83625;BME280;73589;41.158;-73.238;2023-11-19T06:22:57;101015.00;;;24.17;44.28
83625;BME280;73589;41.158;-73.238;2023-11-19T06:25:29;101016.35;;;24.20;44.28
83625;BME280;73589;41.158;-73.238;2023-11-19T06:27:58;101016.29;;;24.17;44.63
83625;BME280;73589;41.158;-73.238;2023-11-19T06:30:29;101016.43;;;24.24;44.51
83625;BME280;73589;41.158;-73.238;2023-11-19T06:33:00;101017.14;;;24.20;44.56
83625;BME280;73589;41.158;-73.238;2023-11-19T06:35:30;101028.39;;;23.34;46.00
83625;BME280;73589;41.158;-73.238;2023-11-19T06:38:02;101037.68;;;22.17;48.80
83625;BME280;73589;41.158;-73.238;2023-11-19T06:40:31;101037.39;;;23.68;45.97
83625;BME280;73589;41.158;-73.238;2023-11-19T06:43:01;101044.61;;;24.23;44.78
83625;BME280;73589;41.158;-73.238;2023-11-19T06:45:32;101048.54;;;24.41;44.31
83625;BME280;73589;41.158;-73.238;2023-11-19T06:48:03;101053.41;;;24.50;44.17
83625;BME280;73589;41.158;-73.238;2023-11-19T06:50:33;101053.55;;;24.47;44.13
83625;BME280;73589;41.158;-73.238;2023-11-19T06:53:03;101056.81;;;23.99;44.44
83625;BME280;73589;41.158;-73.238;2023-11-19T06:55:35;101064.14;;;23.83;44.86
83625;BME280;73589;41.158;-73.238;2023-11-19T06:58:06;101065.86;;;24.31;44.33
83625;BME280;73589;41.158;-73.238;2023-11-19T07:00:35;101065.86;;;24.38;43.80
83625;BME280;73589;41.158;-73.238;2023-11-19T07:03:07;101069.06;;;24.35;43.97
83625;BME280;73589;41.158;-73.238;2023-11-19T07:05:36;101072.43;;;24.42;43.79
83625;BME280;73589;41.158;-73.238;2023-11-19T07:08:07;101080.69;;;24.32;44.10
83625;BME280;73589;41.158;-73.238;2023-11-19T07:10:38;101082.71;;;23.52;45.43
83625;BME280;73589;41.158;-73.238;2023-11-19T07:13:08;101086.57;;;22.96;46.40
83625;BME280;73589;41.158;-73.238;2023-11-19T07:15:39;101079.55;;;24.23;44.16
83625;BME280;73589;41.158;-73.238;2023-11-19T07:18:10;101076.62;;;24.24;44.09
83625;BME280;73589;41.158;-73.238;2023-11-19T07:20:40;101073.98;;;24.27;43.92
83625;BME280;73589;41.158;-73.238;2023-11-19T07:23:12;101075.26;;;24.27;44.04
83625;BME280;73589;41.158;-73.238;2023-11-19T07:25:42;101070.85;;;24.31;43.97
83625;BME280;73589;41.158;-73.238;2023-11-19T07:28:12;101066.32;;;23.51;44.96
83625;BME280;73589;41.158;-73.238;2023-11-19T07:30:43;101064.00;;;23.37;45.47
83625;BME280;73589;41.158;-73.238;2023-11-19T07:33:14;101061.77;;;24.10;44.04
83625;BME280;73589;41.158;-73.238;2023-11-19T07:35:44;101064.00;;;24.18;43.87
83625;BME280;73589;41.158;-73.238;2023-11-19T07:38:15;101065.10;;;24.19;43.81
83625;BME280;73589;41.158;-73.238;2023-11-19T07:40:45;101065.01;;;24.25;43.83
83625;BME280;73589;41.158;-73.238;2023-11-19T07:43:16;101068.57;;;23.45;44.89
83625;BME280;73589;41.158;-73.238;2023-11-19T07:45:47;101074.55;;;23.27;45.42
83625;BME280;73589;41.158;-73.238;2023-11-19T07:48:17;101079.71;;;22.62;46.95
83625;BME280;73589;41.158;-73.238;2023-11-19T07:50:48;101082.30;;;23.81;44.85
83625;BME280;73589;41.158;-73.238;2023-11-19T07:53:20;101080.94;;;24.22;44.14
83625;BME280;73589;41.158;-73.238;2023-11-19T07:55:49;101080.40;;;24.32;43.95
83625;BME280;73589;41.158;-73.238;2023-11-19T07:58:19;101079.99;;;24.29;43.65
83625;BME280;73589;41.158;-73.238;2023-11-19T08:00:51;101075.23;;;24.11;43.82
83625;BME280;73589;41.158;-73.238;2023-11-19T08:03:21;101075.15;;;23.87;44.10
83625;BME280;73589;41.158;-73.238;2023-11-19T08:05:54;101079.97;;;23.69;44.54
83625;BME280;73589;41.158;-73.238;2023-11-19T08:08:22;101084.87;;;24.13;43.95
83625;BME280;73589;41.158;-73.238;2023-11-19T08:10:51;101088.91;;;24.25;43.56
83625;BME280;73589;41.158;-73.238;2023-11-19T08:13:24;101086.28;;;24.28;43.52
83625;BME280;73589;41.158;-73.238;2023-11-19T08:15:53;101088.59;;;24.24;43.57
83625;BME280;73589;41.158;-73.238;2023-11-19T08:18:23;101086.87;;;24.23;43.71
83625;BME280;73589;41.158;-73.238;2023-11-19T08:20:55;101092.33;;;23.57;44.64
83625;BME280;73589;41.158;-73.238;2023-11-19T08:23:25;101096.71;;;23.11;45.55
83625;BME280;73589;41.158;-73.238;2023-11-19T08:25:55;101096.91;;;23.96;43.97
83625;BME280;73589;41.158;-73.238;2023-11-19T08:28:27;101094.06;;;24.15;43.63
83625;BME280;73589;41.158;-73.238;2023-11-19T08:30:56;101096.91;;;24.11;44.05
83625;BME280;73589;41.158;-73.238;2023-11-19T08:33:27;101097.49;;;24.07;43.87
83625;BME280;73589;41.158;-73.238;2023-11-19T08:35:58;101099.24;;;24.13;43.83
83625;BME280;73589;41.158;-73.238;2023-11-19T08:38:28;101099.19;;;23.57;44.63
83625;BME280;73589;41.158;-73.238;2023-11-19T08:40:59;101104.47;;;22.69;46.68
83625;BME280;73589;41.158;-73.238;2023-11-19T08:43:31;101101.96;;;23.95;44.04
83625;BME280;73589;41.158;-73.238;2023-11-19T08:46:00;101102.66;;;24.15;43.67
83625;BME280;73589;41.158;-73.238;2023-11-19T08:48:31;101108.56;;;24.29;43.25
83625;BME280;73589;41.158;-73.238;2023-11-19T08:51:02;101112.55;;;24.27;43.47
83625;BME280;73589;41.158;-73.238;2023-11-19T08:53:32;101110.10;;;24.15;43.41
83625;BME280;73589;41.158;-73.238;2023-11-19T08:56:03;101116.34;;;23.86;43.56
83625;BME280;73589;41.158;-73.238;2023-11-19T08:58:34;101120.14;;;23.91;43.69
83625;BME280;73589;41.158;-73.238;2023-11-19T09:01:04;101114.94;;;24.16;43.46
83625;BME280;73589;41.158;-73.238;2023-11-19T09:03:34;101115.27;;;24.14;43.31
83625;BME280;73589;41.158;-73.238;2023-11-19T09:06:05;101116.10;;;24.13;43.50
83625;BME280;73589;41.158;-73.238;2023-11-19T09:08:36;101121.82;;;24.12;43.53
83625;BME280;73589;41.158;-73.238;2023-11-19T09:11:08;101124.23;;;24.11;43.70
83625;BME280;73589;41.158;-73.238;2023-11-19T09:13:42;101124.72;;;23.65;44.07
83625;BME280;73589;41.158;-73.238;2023-11-19T09:16:08;101131.38;;;22.61;46.14
83625;BME280;73589;41.158;-73.238;2023-11-19T09:18:38;101124.80;;;23.85;43.95
83625;BME280;73589;41.158;-73.238;2023-11-19T09:21:10;101123.39;;;23.98;43.61
83625;BME280;73589;41.158;-73.238;2023-11-19T09:23:39;101120.34;;;23.95;43.94
83625;BME280;73589;41.158;-73.238;2023-11-19T09:26:10;101117.15;;;23.98;43.89
83625;BME280;73589;41.158;-73.238;2023-11-19T09:28:41;101113.34;;;23.74;43.95
83625;BME280;73589;41.158;-73.238;2023-11-19T09:31:15;101118.68;;;23.28;44.84
83625;BME280;73589;41.158;-73.238;2023-11-19T09:33:42;101115.88;;;22.75;46.41
83625;BME280;73589;41.158;-73.238;2023-11-19T09:36:13;101118.69;;;23.87;44.11
83625;BME280;73589;41.158;-73.238;2023-11-19T09:38:43;101121.07;;;24.20;43.76
83625;BME280;73589;41.158;-73.238;2023-11-19T09:41:14;101122.50;;;24.24;43.82
83625;BME280;73589;41.158;-73.238;2023-11-19T09:43:45;101120.82;;;24.27;43.88
83625;BME280;73589;41.158;-73.238;2023-11-19T09:46:15;101120.91;;;23.99;43.81
83625;BME280;73589;41.158;-73.238;2023-11-19T09:48:45;101122.53;;;23.73;44.00
83625;BME280;73589;41.158;-73.238;2023-11-19T09:51:16;101122.63;;;23.92;43.86
83625;BME280;73589;41.158;-73.238;2023-11-19T09:53:47;101118.75;;;24.08;43.86
83625;BME280;73589;41.158;-73.238;2023-11-19T09:56:17;101119.93;;;24.05;43.98
83625;BME280;73589;41.158;-73.238;2023-11-19T09:58:48;101120.38;;;24.08;43.88
83625;BME280;73589;41.158;-73.238;2023-11-19T10:01:19;101120.23;;;24.04;44.16
83625;BME280;73589;41.158;-73.238;2023-11-19T10:03:50;101116.28;;;23.76;44.53
83625;BME280;73589;41.158;-73.238;2023-11-19T10:06:21;101122.56;;;23.38;45.00
83625;BME280;73589;41.158;-73.238;2023-11-19T10:08:50;101126.32;;;23.52;44.80
83625;BME280;73589;41.158;-73.238;2023-11-19T10:11:21;101131.67;;;23.94;44.23
83625;BME280;73589;41.158;-73.238;2023-11-19T10:13:53;101137.91;;;23.94;44.15
83625;BME280;73589;41.158;-73.238;2023-11-19T10:16:28;101137.44;;;23.94;44.43
83625;BME280;73589;41.158;-73.238;2023-11-19T10:18:53;101144.35;;;23.98;44.28
83625;BME280;73589;41.158;-73.238;2023-11-19T10:21:25;101141.35;;;23.67;44.47
83625;BME280;73589;41.158;-73.238;2023-11-19T10:23:56;101151.00;;;23.03;45.83
83625;BME280;73589;41.158;-73.238;2023-11-19T10:26:23;101152.61;;;22.66;46.78
83625;BME280;73589;41.158;-73.238;2023-11-19T10:28:54;101148.59;;;23.75;44.28
83625;BME280;73589;41.158;-73.238;2023-11-19T10:31:25;101151.81;;;24.02;44.29
83625;BME280;73589;41.158;-73.238;2023-11-19T10:33:56;101152.89;;;24.07;43.81
83625;BME280;73589;41.158;-73.238;2023-11-19T10:38:56;101155.09;;;23.43;44.64
83625;BME280;73589;41.158;-73.238;2023-11-19T10:41:28;101160.88;;;22.84;45.68
83625;BME280;73589;41.158;-73.238;2023-11-19T10:43:57;101162.12;;;23.79;44.33
83625;BME280;73589;41.158;-73.238;2023-11-19T10:48:58;101169.48;;;23.97;43.87
83625;BME280;73589;41.158;-73.238;2023-11-19T10:51:29;101164.88;;;23.95;43.66
83625;BME280;73589;41.158;-73.238;2023-11-19T10:54:03;101165.25;;;23.93;43.73
83625;BME280;73589;41.158;-73.238;2023-11-19T10:56:31;101172.95;;;23.30;44.62
83625;BME280;73589;41.158;-73.238;2023-11-19T10:59:01;101170.72;;;22.75;45.61
83625;BME280;73589;41.158;-73.238;2023-11-19T11:01:39;101172.24;;;22.21;46.90
83625;BME280;73589;41.158;-73.238;2023-11-19T11:04:03;101168.53;;;23.52;44.48
83625;BME280;73589;41.158;-73.238;2023-11-19T11:06:34;101165.34;;;23.87;44.00
83625;BME280;73589;41.158;-73.238;2023-11-19T11:09:05;101163.95;;;24.04;43.40
83625;BME280;73589;41.158;-73.238;2023-11-19T11:11:34;101167.58;;;23.98;43.45
83625;BME280;73589;41.158;-73.238;2023-11-19T11:14:05;101167.38;;;23.98;43.45
83625;BME280;73589;41.158;-73.238;2023-11-19T11:16:38;101173.30;;;23.62;43.83
83625;BME280;73589;41.158;-73.238;2023-11-19T11:19:06;101180.44;;;22.93;45.27
83625;BME280;73589;41.158;-73.238;2023-11-19T11:21:44;101180.79;;;23.75;44.14
83625;BME280;73589;41.158;-73.238;2023-11-19T11:29:16;101184.59;;;23.89;43.78
83625;BME280;73589;41.158;-73.238;2023-11-19T11:31:48;101186.57;;;23.91;43.82
83625;BME280;73589;41.158;-73.238;2023-11-19T11:34:24;101186.95;;;23.37;44.61
83625;BME280;73589;41.158;-73.238;2023-11-19T11:36:48;101191.92;;;23.20;44.85
83625;BME280;73589;41.158;-73.238;2023-11-19T11:39:10;101194.79;;;23.44;44.62
83625;BME280;73589;41.158;-73.238;2023-11-19T11:41:41;101199.09;;;22.58;46.45
83625;BME280;73589;41.158;-73.238;2023-11-19T11:44:12;101198.56;;;23.56;44.41
83625;BME280;73589;41.158;-73.238;2023-11-19T11:49:13;101199.64;;;23.99;43.92
83625;BME280;73589;41.158;-73.238;2023-11-19T11:59:18;101199.65;;;23.76;44.36
83625;BME280;73589;41.158;-73.238;2023-11-19T12:04:16;101197.37;;;23.90;43.85
83625;BME280;73589;41.158;-73.238;2023-11-19T12:09:19;101208.61;;;23.93;44.59
83625;BME280;73589;41.158;-73.238;2023-11-19T12:11:48;101212.07;;;23.68;44.54
83625;BME280;73589;41.158;-73.238;2023-11-19T12:14:16;101214.86;;;23.33;44.95
83625;BME280;73589;41.158;-73.238;2023-11-19T12:16:48;101223.55;;;23.56;44.85
83625;BME280;73589;41.158;-73.238;2023-11-19T12:19:18;101219.72;;;24.12;43.97
83625;BME280;73589;41.158;-73.238;2023-11-19T12:21:48;101222.06;;;24.19;43.87
83625;BME280;73589;41.158;-73.238;2023-11-19T12:24:24;101223.48;;;24.21;43.80
83625;BME280;73589;41.158;-73.238;2023-11-19T12:26:49;101227.58;;;24.26;43.74
83625;BME280;73589;41.158;-73.238;2023-11-19T12:29:19;101227.81;;;24.31;43.64
83625;BME280;73589;41.158;-73.238;2023-11-19T12:31:55;101225.37;;;24.34;43.61
83625;BME280;73589;41.158;-73.238;2023-11-19T12:34:21;101223.23;;;24.19;43.67
83625;BME280;73589;41.158;-73.238;2023-11-19T12:36:51;101232.99;;;23.26;45.04
83625;BME280;73589;41.158;-73.238;2023-11-19T12:39:22;101232.79;;;24.08;43.92
83625;BME280;73589;41.158;-73.238;2023-11-19T12:41:53;101230.13;;;24.35;43.36
83625;BME280;73589;41.158;-73.238;2023-11-19T12:44:23;101231.52;;;24.47;43.18
83625;BME280;73589;41.158;-73.238;2023-11-19T12:47:02;101232.53;;;24.56;43.07
83625;BME280;73589;41.158;-73.238;2023-11-19T12:49:24;101233.17;;;24.56;43.23
83625;BME280;73589;41.158;-73.238;2023-11-19T12:51:56;101228.00;;;24.56;43.19
83625;BME280;73589;41.158;-73.238;2023-11-19T12:54:32;101230.45;;;24.55;43.30
83625;BME280;73589;41.158;-73.238;2023-11-19T12:56:56;101235.59;;;24.56;43.11
83625;BME280;73589;41.158;-73.238;2023-11-19T12:59:28;101240.93;;;24.64;42.73
83625;BME280;73589;41.158;-73.238;2023-11-19T13:01:58;101241.03;;;24.76;42.56
83625;BME280;73589;41.158;-73.238;2023-11-19T13:04:29;101241.09;;;24.81;42.53
83625;BME280;73589;41.158;-73.238;2023-11-19T13:07:00;101230.94;;;24.83;42.55
83625;BME280;73589;41.158;-73.238;2023-11-19T13:09:29;101223.29;;;24.79;42.65
83625;BME280;73589;41.158;-73.238;2023-11-19T13:12:00;101222.40;;;24.74;42.51
83625;BME280;73589;41.158;-73.238;2023-11-19T13:14:36;101232.81;;;24.68;42.54